Time;durP1;ratioP1;P1;durP2;ratioP2;P2;SDS_P1;SDS_P2;PMS_P1;PMS_P2;Temp;Humidity;BMP_temperature;BMP_pressure;BME280_temperature;BME280_humidity;BME280_pressure;Samples;Min_cycle;Max_cycle;Signal;HPM_P1;HPM_P2
2022/12/26 00:02:55;;;;;;;3.40;3.20;;;;;14.20;98878.00;;;;16656254;28;20229;-48
2022/12/26 00:10:59;;;;;;;3.60;3.30;;;;;14.20;98877.00;;;;16650051;28;20707;-47
2022/12/26 00:19:02;;;;;;;3.40;3.10;;;;;14.10;98873.00;;;;16639933;28;20721;-48
2022/12/26 00:27:06;;;;;;;4.27;3.87;;;;;14.30;98876.00;;;;16638965;28;20677;-47
2022/12/26 00:35:09;;;;;;;4.83;4.40;;;;;13.00;98904.00;;;;16680246;22;20319;-48
2022/12/26 00:43:12;;;;;;;4.73;4.33;;;;;13.10;98910.00;;;;16713993;28;20204;-47
2022/12/26 00:51:15;;;;;;;6.03;5.43;;;;;13.20;98913.00;;;;16681967;28;20777;-48
2022/12/26 00:59:19;;;;;;;9.63;8.57;;;;;12.60;98890.00;;;;16707480;28;20232;-47
2022/12/26 01:07:21;;;;;;;6.17;4.50;;;;;13.10;98899.00;;;;16705656;28;20248;-48
2022/12/26 01:15:25;;;;;;;9.47;5.67;;;;;12.20;98894.00;;;;16712275;28;20605;-48
2022/12/26 01:23:27;;;;;;;7.40;6.03;;;;;11.30;98910.00;;;;16685506;28;20210;-47
2022/12/26 01:31:31;;;;;;;9.40;7.10;;;;;11.10;98920.00;;;;16713748;28;20232;-48
2022/12/26 01:39:34;;;;;;;18.50;8.53;;;;;10.90;98916.00;;;;16698339;28;20719;-47
2022/12/26 01:47:45;;;;;;;10.53;7.40;;;;;11.10;98923.00;;;;16710180;28;20253;-47
2022/12/26 01:55:50;;;;;;;6.53;5.20;;;;;11.90;98915.00;;;;16699246;28;20235;-47
2022/12/26 02:12:16;;;;;;;6.50;5.33;;;;;12.00;98905.00;;;;16689716;28;20241;-47
2022/12/26 02:20:22;;;;;;;6.70;5.43;;;;;11.50;98898.00;;;;16704225;28;20707;-47
2022/12/26 02:28:48;;;;;;;5.90;5.30;;;;;10.90;98911.00;;;;16684791;28;20240;-47
2022/12/26 02:37:08;;;;;;;5.77;4.60;;;;;11.20;98910.00;;;;16675246;28;20229;-48
2022/12/26 03:18:54;;;;;;;5.07;4.33;;;;;12.60;98901.00;;;;16716585;28;20229;-47
2022/12/26 03:26:58;;;;;;;4.40;4.00;;;;;12.90;98890.00;;;;16711149;28;20263;-48
2022/12/26 03:35:00;;;;;;;4.60;3.43;;;;;13.00;98881.00;;;;16720998;28;20226;-48
2022/12/26 04:50:25;;;;;;;4.43;3.67;;;;;12.80;98899.00;;;;16714282;28;20238;-47
2022/12/26 04:58:29;;;;;;;5.10;4.17;;;;;13.20;98888.00;;;;16713037;28;20328;-48
2022/12/26 05:14:52;;;;;;;4.07;3.67;;;;;13.50;98899.00;;;;16713386;28;20732;-47
2022/12/26 05:31:17;;;;;;;5.70;4.10;;;;;13.60;98885.00;;;;16705443;28;20282;-48
2022/12/26 05:39:21;;;;;;;6.07;5.57;;;;;13.10;98906.00;;;;16701555;28;20711;-48
2022/12/26 05:47:24;;;;;;;8.97;8.27;;;;;12.50;98916.00;;;;16711912;28;20221;-47
2022/12/26 05:55:29;;;;;;;3.93;3.63;;;;;12.60;98910.00;;;;16689558;28;20240;-47
2022/12/26 06:03:31;;;;;;;3.50;2.93;;;;;12.00;98923.00;;;;16711664;28;20723;-47
2022/12/26 06:11:35;;;;;;;4.73;4.33;;;;;12.70;98911.00;;;;16682222;28;20251;-47
2022/12/26 06:19:37;;;;;;;5.50;4.27;;;;;12.20;98908.00;;;;16700163;28;20265;-47
2022/12/26 06:27:43;;;;;;;16.80;4.93;;;;;12.00;98921.00;;;;16694910;28;20221;-47
2022/12/26 06:35:46;;;;;;;3.97;3.57;;;;;13.10;98904.00;;;;16687923;28;20233;-47
2022/12/26 06:43:50;;;;;;;4.33;3.67;;;;;13.60;98895.00;;;;16675738;28;20201;-48
2022/12/26 06:51:53;;;;;;;3.83;3.53;;;;;13.80;98897.00;;;;16675537;28;20719;-48
2022/12/26 06:59:57;;;;;;;3.37;3.10;;;;;13.80;98894.00;;;;16677033;28;20679;-47
2022/12/26 07:07:59;;;;;;;5.60;4.37;;;;;13.80;98895.00;;;;16680112;28;20682;-48
2022/12/26 07:16:03;;;;;;;4.60;4.17;;;;;14.10;98900.00;;;;16678886;28;20225;-47
2022/12/26 07:24:07;;;;;;;3.70;3.40;;;;;14.30;98905.00;;;;16664352;28;20809;-47
2022/12/26 07:32:11;;;;;;;4.90;3.20;;;;;14.30;98918.00;;;;16699731;28;20225;-47
2022/12/26 07:40:14;;;;;;;4.20;3.80;;;;;14.40;98905.00;;;;16700469;28;20229;-47
2022/12/26 07:48:17;;;;;;;5.33;3.83;;;;;13.40;98915.00;;;;16689254;28;20213;-47
2022/12/26 07:56:20;;;;;;;5.33;4.50;;;;;13.10;98916.00;;;;16692658;28;20284;-47
2022/12/26 08:04:24;;;;;;;7.23;6.63;;;;;13.80;98930.00;;;;16690925;28;20236;-47
2022/12/26 08:12:26;;;;;;;7.00;5.63;;;;;13.00;98942.00;;;;16687172;28;20205;-47
2022/12/26 08:20:30;;;;;;;7.00;5.53;;;;;13.50;98928.00;;;;16691895;28;20598;-47
2022/12/26 08:28:32;;;;;;;4.57;4.17;;;;;14.10;98936.00;;;;16698242;28;20603;-47
2022/12/26 08:36:36;;;;;;;4.63;3.40;;;;;14.30;98949.00;;;;16702316;28;20252;-47
2022/12/26 08:44:39;;;;;;;4.27;3.80;;;;;14.50;98965.00;;;;16708296;28;20295;-48
2022/12/26 08:52:43;;;;;;;5.90;5.40;;;;;14.30;98971.00;;;;16696653;28;20195;-48
2022/12/26 09:00:45;;;;;;;12.10;11.10;;;;;13.70;99001.00;;;;16682557;28;20230;-47
2022/12/26 09:08:49;;;;;;;15.60;13.97;;;;;13.50;99016.00;;;;16689172;28;20221;-46
2022/12/26 09:16:53;;;;;;;5.67;5.17;;;;;13.00;99047.00;;;;16707077;28;20301;-47
2022/12/26 09:24:56;;;;;;;6.87;6.27;;;;;13.10;99073.00;;;;16697597;28;20224;-47
2022/12/26 09:32:59;;;;;;;8.13;7.23;;;;;14.10;99055.00;;;;16695504;28;20208;-47
2022/12/26 09:41:12;;;;;;;11.07;9.67;;;;;14.00;99057.00;;;;16692750;28;20236;-48
2022/12/26 09:49:18;;;;;;;6.97;6.27;;;;;14.20;99072.00;;;;16679495;28;20299;-47
2022/12/26 09:57:29;;;;;;;6.87;6.27;;;;;14.10;99075.00;;;;16668490;28;20259;-47
2022/12/26 10:05:35;;;;;;;7.63;6.83;;;;;13.70;99088.00;;;;16657914;28;20241;-47
2022/12/26 10:13:42;;;;;;;7.90;7.20;;;;;12.40;99130.00;;;;16670591;28;20216;-47
2022/12/26 10:21:50;;;;;;;7.73;6.97;;;;;12.80;99128.00;;;;16679706;28;20232;-46
2022/12/26 10:29:56;;;;;;;8.17;7.40;;;;;13.20;99142.00;;;;16679017;28;20224;-47
2022/12/26 10:38:02;;;;;;;9.20;7.97;;;;;14.00;99120.00;;;;16670328;28;20237;-47
2022/12/26 10:46:18;;;;;;;13.10;7.83;;;;;14.10;99130.00;;;;16676983;28;20218;-47
2022/12/26 10:54:20;;;;;;;15.37;8.93;;;;;14.30;99132.00;;;;16670192;28;20227;-47
2022/12/26 11:02:26;;;;;;;8.53;7.63;;;;;13.90;99127.00;;;;16705413;28;20213;-47
2022/12/26 11:10:30;;;;;;;8.70;7.20;;;;;13.90;99142.00;;;;16684112;28;20225;-48
2022/12/26 11:18:37;;;;;;;11.80;6.30;;;;;14.00;99113.00;;;;16714617;28;20232;-47
2022/12/26 11:26:39;;;;;;;6.90;4.80;;;;;14.00;99094.00;;;;16686757;28;20673;-47
2022/12/26 11:34:46;;;;;;;6.70;5.60;;;;;13.90;99073.00;;;;16693601;28;20238;-47
2022/12/26 11:42:50;;;;;;;4.70;4.20;;;;;14.20;99103.00;;;;16695993;28;20570;-47
2022/12/26 11:50:54;;;;;;;9.63;5.97;;;;;14.30;99109.00;;;;16690754;28;20225;-47
2022/12/26 11:59:12;;;;;;;8.13;7.30;;;;;14.30;99083.00;;;;16701214;28;20233;-48
2022/12/26 12:07:39;;;;;;;7.83;5.30;;;;;14.20;99072.00;;;;16700225;28;20250;-48
2022/12/26 12:15:44;;;;;;;6.77;6.17;;;;;14.40;99072.00;;;;16667829;28;20612;-48
2022/12/26 12:24:01;;;;;;;5.57;4.40;;;;;14.80;99100.00;;;;16680213;28;20202;-48
2022/12/26 12:32:09;;;;;;;6.20;4.70;;;;;14.80;99085.00;;;;16683313;28;20610;-47
2022/12/26 12:40:26;;;;;;;3.87;3.57;;;;;14.50;99089.00;;;;16699227;28;20229;-48
2022/12/26 12:48:40;;;;;;;3.30;3.00;;;;;14.80;99079.00;;;;16687379;28;20225;-48
2022/12/26 12:56:48;;;;;;;3.30;3.00;;;;;14.70;99081.00;;;;16696489;28;20234;-47
2022/12/26 13:04:56;;;;;;;2.57;2.13;;;;;14.90;99089.00;;;;16698965;28;20218;-48
2022/12/26 13:13:02;;;;;;;3.03;1.70;;;;;15.10;99077.00;;;;16697701;28;20197;-48
2022/12/26 13:21:06;;;;;;;1.67;1.40;;;;;14.80;99079.00;;;;16686913;28;20698;-47
2022/12/26 13:29:15;;;;;;;0.93;0.90;;;;;14.60;99063.00;;;;16676209;28;20702;-47
2022/12/26 13:37:54;;;;;;;1.63;1.40;;;;;14.70;99044.00;;;;16680318;28;20245;-48
2022/12/26 13:45:57;;;;;;;1.50;1.40;;;;;14.80;99053.00;;;;16684954;28;20222;-48
2022/12/26 13:54:08;;;;;;;1.77;1.67;;;;;15.20;99063.00;;;;16693715;28;20235;-48
2022/12/26 14:02:38;;;;;;;5.60;2.10;;;;;15.00;99059.00;;;;16695833;28;20210;-47
2022/12/26 14:10:48;;;;;;;1.87;1.77;;;;;14.80;99050.00;;;;16669098;28;20309;-47
2022/12/26 14:18:57;;;;;;;2.07;1.93;;;;;14.70;99051.00;;;;16693152;28;20758;-47
2022/12/26 14:27:16;;;;;;;1.63;1.53;;;;;14.80;99064.00;;;;16693668;28;20217;-47
2022/12/26 14:35:29;;;;;;;3.13;1.83;;;;;14.60;99047.00;;;;16699240;28;20306;-47
2022/12/26 14:43:37;;;;;;;4.20;3.90;;;;;14.60;99038.00;;;;16702974;28;21885;-47
2022/12/26 14:51:41;;;;;;;2.30;2.10;;;;;14.70;99044.00;;;;16706900;28;20210;-47
2022/12/26 15:00:12;;;;;;;2.27;2.07;;;;;14.50;99029.00;;;;16707803;28;20229;-47
2022/12/26 15:08:43;;;;;;;3.37;1.60;;;;;14.30;99050.00;;;;16703096;28;20222;-47
2022/12/26 15:16:57;;;;;;;1.77;1.50;;;;;14.20;99024.00;;;;16700599;28;20234;-47
2022/12/26 15:25:29;;;;;;;4.30;3.20;;;;;14.20;99013.00;;;;16702950;28;20214;-47
2022/12/26 15:33:37;;;;;;;4.90;4.40;;;;;14.40;99029.00;;;;16693798;28;20203;-47
2022/12/26 15:41:47;;;;;;;2.00;1.80;;;;;14.30;99050.00;;;;16680502;28;20342;-47
2022/12/26 15:50:00;;;;;;;1.93;1.83;;;;;14.40;99055.00;;;;16690629;28;20329;-47
2022/12/26 15:58:11;;;;;;;3.67;1.63;;;;;14.30;99034.00;;;;16679482;28;20321;-47
2022/12/26 16:06:27;;;;;;;2.10;2.00;;;;;14.20;99041.00;;;;16688082;28;20222;-47
2022/12/26 16:14:33;;;;;;;1.40;1.30;;;;;14.00;99055.00;;;;16698503;28;20225;-46
2022/12/26 16:22:45;;;;;;;1.97;1.87;;;;;14.10;99052.00;;;;16706936;28;20205;-47
2022/12/26 16:30:49;;;;;;;2.13;2.03;;;;;14.00;99051.00;;;;16694851;28;20316;-47
2022/12/26 16:38:52;;;;;;;2.70;2.50;;;;;13.70;99063.00;;;;16697396;28;20230;-47
2022/12/26 16:46:56;;;;;;;5.50;4.00;;;;;13.90;99070.00;;;;16698367;28;20359;-47
2022/12/26 16:54:58;;;;;;;2.47;2.27;;;;;14.30;99060.00;;;;16690622;28;20221;-47
2022/12/26 17:03:04;;;;;;;1.60;1.50;;;;;14.10;99068.00;;;;16704377;28;20203;-47
2022/12/26 17:11:06;;;;;;;1.73;1.63;;;;;14.20;99064.00;;;;16693654;28;20221;-47
2022/12/26 17:19:18;;;;;;;2.10;1.97;;;;;13.90;99054.00;;;;16698300;28;20570;-47
2022/12/26 17:27:23;;;;;;;3.20;1.60;;;;;14.00;99092.00;;;;16671330;28;20597;-47
2022/12/26 17:35:27;;;;;;;2.13;1.93;;;;;14.00;99098.00;;;;16676876;28;20601;-47
2022/12/26 17:43:31;;;;;;;2.30;1.57;;;;;13.90;99094.00;;;;16683396;28;20202;-47
2022/12/26 17:51:35;;;;;;;9.73;6.97;;;;;12.60;99114.00;;;;16680210;28;20229;-47
2022/12/26 17:59:37;;;;;;;11.63;10.43;;;;;11.90;99147.00;;;;16694416;28;20235;-45
2022/12/26 18:07:42;;;;;;;11.73;10.27;;;;;11.50;99190.00;;;;16683054;28;20229;-45
2022/12/26 18:15:44;;;;;;;10.43;9.20;;;;;11.80;99181.00;;;;16695287;28;20234;-44
2022/12/26 18:23:48;;;;;;;6.43;5.83;;;;;12.60;99182.00;;;;16703602;28;20700;-44
2022/12/26 18:31:50;;;;;;;2.47;2.10;;;;;12.00;99211.00;;;;16682396;28;20221;-45
2022/12/26 18:39:54;;;;;;;1.50;1.40;;;;;12.10;99220.00;;;;16667111;28;20232;-45
2022/12/26 18:47:57;;;;;;;0.80;0.80;;;;;11.80;99212.00;;;;16669468;28;20704;-45
2022/12/26 18:56:01;;;;;;;0.90;0.90;;;;;11.60;99228.00;;;;16670945;28;20236;-46
2022/12/26 19:04:03;;;;;;;1.00;0.90;;;;;11.50;99268.00;;;;16688771;28;20196;-45
2022/12/26 19:12:07;;;;;;;3.10;1.20;;;;;11.50;99246.00;;;;16688461;28;20215;-45
2022/12/26 19:20:16;;;;;;;10.33;2.03;;;;;11.60;99250.00;;;;16693192;28;20275;-45
2022/12/26 19:28:20;;;;;;;2.00;1.77;;;;;11.70;99262.00;;;;16704750;28;20224;-45
2022/12/26 19:36:23;;;;;;;3.73;1.20;;;;;12.10;99280.00;;;;16700467;28;20264;-45
2022/12/26 19:44:28;;;;;;;2.97;1.53;;;;;12.60;99289.00;;;;16696415;28;20210;-45
2022/12/26 19:52:31;;;;;;;0.90;0.90;;;;;12.30;99322.00;;;;16666817;28;20212;-45
2022/12/26 20:00:35;;;;;;;5.17;4.03;;;;;12.60;99350.00;;;;16691392;28;20226;-45
2022/12/26 20:08:37;;;;;;;1.27;1.00;;;;;11.60;99377.00;;;;16693098;28;20229;-44
2022/12/26 20:16:41;;;;;;;1.50;1.40;;;;;11.60;99399.00;;;;16690488;28;20736;-45
2022/12/26 20:24:45;;;;;;;3.37;2.10;;;;;12.10;99409.00;;;;16697248;28;20735;-45
2022/12/26 20:32:49;;;;;;;4.63;2.90;;;;;12.10;99420.00;;;;16696724;28;20277;-45
2022/12/26 20:40:51;;;;;;;2.80;2.53;;;;;11.60;99452.00;;;;16674019;28;20219;-44
2022/12/26 20:48:56;;;;;;;1.10;1.00;;;;;11.90;99460.00;;;;16693808;28;20241;-46
2022/12/26 20:56:58;;;;;;;3.67;1.50;;;;;11.30;99474.00;;;;16684553;28;20234;-45
2022/12/26 21:05:02;;;;;;;1.53;1.40;;;;;11.40;99480.00;;;;16685355;28;20225;-45
2022/12/26 21:13:07;;;;;;;1.97;1.53;;;;;11.20;99517.00;;;;16688604;28;20201;-44
2022/12/26 21:21:12;;;;;;;3.80;1.70;;;;;11.10;99531.00;;;;16688661;28;20332;-45
2022/12/26 21:29:17;;;;;;;1.50;1.07;;;;;10.90;99531.00;;;;16695347;28;20706;-45
2022/12/26 21:45:41;;;;;;;1.27;1.10;;;;;10.90;99547.00;;;;16695365;28;20218;-45
2022/12/26 21:53:45;;;;;;;1.23;1.10;;;;;10.90;99580.00;;;;16697191;28;20313;-45
2022/12/26 22:01:47;;;;;;;1.90;1.67;;;;;10.80;99594.00;;;;16690605;28;20233;-45
2022/12/26 22:09:51;;;;;;;1.30;1.20;;;;;10.70;99609.00;;;;16691450;28;20300;-45
2022/12/26 22:17:53;;;;;;;2.63;1.13;;;;;10.70;99618.00;;;;16694280;28;20221;-46
2022/12/26 22:25:57;;;;;;;1.93;1.60;;;;;10.60;99637.00;;;;16694024;28;20210;-45
2022/12/26 22:34:01;;;;;;;3.00;2.10;;;;;10.40;99650.00;;;;16692510;28;20209;-44
2022/12/26 22:42:05;;;;;;;7.37;2.27;;;;;10.30;99657.00;;;;16666224;28;20729;-45
2022/12/26 22:50:09;;;;;;;2.60;1.50;;;;;10.50;99673.00;;;;16682851;28;20589;-45
2022/12/26 22:58:13;;;;;;;2.20;1.70;;;;;10.20;99668.00;;;;16690590;28;20612;-45
2022/12/26 23:06:20;;;;;;;2.17;1.90;;;;;10.00;99685.00;;;;16693077;28;20287;-45
2022/12/26 23:14:24;;;;;;;4.00;2.10;;;;;9.90;99696.00;;;;16694578;28;20251;-45
2022/12/26 23:22:27;;;;;;;1.40;1.30;;;;;9.70;99712.00;;;;16692587;28;20592;-45
2022/12/26 23:30:31;;;;;;;2.53;1.60;;;;;9.50;99720.00;;;;16701762;28;20276;-45
2022/12/26 23:38:33;;;;;;;3.70;1.40;;;;;9.40;99730.00;;;;16711021;28;20605;-46
2022/12/26 23:46:38;;;;;;;1.77;1.30;;;;;9.40;99748.00;;;;16701783;28;20691;-45
2022/12/26 23:54:41;;;;;;;2.70;1.53;;;;;9.30;99754.00;;;;16704141;28;20231;-45
